»·PEaware :: N1BD KASE-KPHX

N1BD :: KASE-KPHX

FLIGHT INFORMATION

Flight Status: Arrived
Operator: Privately registered:
United States
More flights under this callsign
Pilot: Anonymous 26385 (26385)
Aircraft: SOCATA TBM-900
(TBM9)
More flights by this aircraft type
Origin: KASE Aspen-Pitkin Co/Sardy
United States
Destination: KPHX Phoenix Sky Harbor Intl
United States
More flights between these airports :: More routes between these airports
Route: +LINDZ9 JNC INW BUNTR3
File this flight plan on PilotEdge
Remarks:
Altitude:
(Current/Filed)
30,000ft
Speed:
(Current/Filed)
180kts
Departed: 02-Dec-19 07:35 PM
Arrived: 02-Dec-19 09:45 PM
Distance/Time
Traveled:
428nm/2:10
Distance/Time
To Go:
Arrived

Flight Plot

Page will automatically refresh every two minutes.

Flight plan parsing failed; only flown route is shown


Map Options




Map Legend


Flown Route
Filed Route
Departure Airport
Arrival Airport
Navaid (VOR, NDB)
Fix

Horizontal Profiles

Position Reports

Time Latitude Longitude Heading Altitude Ground
Speed
02-Dec-19 19:15 39.222769 -106.866784 253 7837ft 0kts
02-Dec-19 19:16 39.222769 -106.866784 253 7837ft 0kts
02-Dec-19 19:17 39.222769 -106.866784 253 7837ft 0kts
02-Dec-19 19:18 39.222769 -106.866784 253 7837ft 0kts
02-Dec-19 19:19 39.222769 -106.866784 253 7837ft 0kts
02-Dec-19 19:20 39.222769 -106.866784 253 7837ft 0kts
02-Dec-19 19:21 39.222769 -106.866784 253 7837ft 0kts
02-Dec-19 19:22 39.222769 -106.866784 253 7837ft 0kts
02-Dec-19 19:23 39.222769 -106.866784 253 7837ft 0kts
02-Dec-19 19:24 39.222769 -106.866784 253 7837ft 0kts
02-Dec-19 19:25 39.222769 -106.866784 253 7837ft 0kts
02-Dec-19 19:26 39.222769 -106.866784 253 7837ft 0kts
02-Dec-19 19:27 39.222769 -106.866784 253 7837ft 0kts
02-Dec-19 19:28 39.222769 -106.866784 253 7837ft 0kts
02-Dec-19 19:29 39.222769 -106.866784 253 7837ft 0kts
02-Dec-19 19:30 39.221694 -106.866995 159 7837ft 17kts
02-Dec-19 19:31 39.217123 -106.864827 159 7837ft 15kts
02-Dec-19 19:32 39.212770 -106.862755 159 7837ft 20kts
02-Dec-19 19:33 39.212207 -106.862589 182 7837ft 0kts
02-Dec-19 19:34 39.214633 -106.864777 341 7837ft 72kts
02-Dec-19 19:35 39.250876 -106.878922 351 8960ft 159kts
02-Dec-19 19:36 39.275209 -106.929358 276 10270ft 194kts
02-Dec-19 19:37 39.284450 -106.989623 279 12774ft 160kts
02-Dec-19 19:38 39.299706 -107.042540 305 15065ft 167kts
02-Dec-19 19:39 39.334150 -107.087587 307 16051ft 201kts
02-Dec-19 19:40 39.370721 -107.134618 306 17997ft 170kts
02-Dec-19 19:41 39.382815 -107.186330 261 19983ft 163kts
02-Dec-19 19:42 39.372154 -107.243639 259 21774ft 166kts
02-Dec-19 19:43 39.360805 -107.301988 259 23407ft 169kts
02-Dec-19 19:44 39.349336 -107.360726 259 25041ft 169kts
02-Dec-19 19:45 39.337747 -107.419948 258 26259ft 175kts
02-Dec-19 19:46 39.325707 -107.481234 258 27275ft 176kts
02-Dec-19 19:47 39.313739 -107.542078 258 28182ft 175kts
02-Dec-19 19:48 39.301729 -107.602930 258 28993ft 175kts
02-Dec-19 19:49 39.289819 -107.663044 258 29506ft 182kts
02-Dec-19 19:50 39.277212 -107.726445 258 30116ft 182kts
02-Dec-19 19:51 39.264283 -107.791331 258 30314ft 194kts
02-Dec-19 19:52 39.250403 -107.860836 257 30323ft 205kts
02-Dec-19 19:53 39.235915 -107.933073 257 30313ft 210kts
02-Dec-19 19:54 39.221133 -108.006407 257 30319ft 211kts
02-Dec-19 19:55 39.206272 -108.079982 257 30310ft 212kts
02-Dec-19 19:56 39.191233 -108.154133 257 30321ft 213kts
02-Dec-19 19:57 39.176211 -108.227986 257 30305ft 212kts
02-Dec-19 19:58 39.161171 -108.301671 257 30319ft 211kts
02-Dec-19 19:59 39.146482 -108.373254 257 30300ft 213kts
02-Dec-19 20:00 39.132526 -108.441183 257 30295ft 212kts
02-Dec-19 20:01 39.117293 -108.515009 257 30312ft 211kts
02-Dec-19 20:02 39.102110 -108.588335 257 30286ft 213kts
02-Dec-19 20:03 39.087078 -108.660654 257 30305ft 212kts
02-Dec-19 20:04 39.071675 -108.734630 256 30314ft 215kts
02-Dec-19 20:05 39.042184 -108.800512 222 30310ft 242kts
02-Dec-19 20:06 38.978907 -108.835271 218 30325ft 248kts
02-Dec-19 20:07 38.915149 -108.869051 217 30314ft 248kts
02-Dec-19 20:08 38.853577 -108.901543 217 30322ft 247kts
02-Dec-19 20:09 38.790260 -108.934905 217 30321ft 245kts
02-Dec-19 20:10 38.727184 -108.968075 218 30321ft 245kts
02-Dec-19 20:11 38.664321 -109.001070 218 30326ft 244kts
02-Dec-19 20:12 38.601673 -109.033889 218 30331ft 243kts
02-Dec-19 20:13 38.539158 -109.066574 218 30333ft 243kts
02-Dec-19 20:14 38.476603 -109.099223 218 30333ft 242kts
02-Dec-19 20:15 38.414272 -109.131691 218 30334ft 242kts
02-Dec-19 20:16 38.352011 -109.164077 218 30336ft 241kts
02-Dec-19 20:17 38.289864 -109.196314 218 30333ft 241kts
02-Dec-19 20:18 38.227917 -109.228402 218 30332ft 240kts
02-Dec-19 20:19 38.165982 -109.260425 218 30349ft 239kts
02-Dec-19 20:20 38.104476 -109.292161 218 30366ft 239kts
02-Dec-19 20:21 38.042869 -109.323924 218 30378ft 238kts
02-Dec-19 20:22 37.981465 -109.355471 218 30375ft 237kts
02-Dec-19 20:23 37.920415 -109.386820 218 30388ft 236kts
02-Dec-19 20:24 37.860171 -109.417676 218 30363ft 238kts
02-Dec-19 20:25 37.798847 -109.449059 218 30381ft 238kts
02-Dec-19 20:26 37.737444 -109.480398 218 30376ft 237kts
02-Dec-19 20:27 37.676096 -109.511677 218 30361ft 239kts
02-Dec-19 20:28 37.614772 -109.542857 218 30372ft 237kts
02-Dec-19 20:29 37.553829 -109.573794 218 30373ft 236kts
02-Dec-19 20:31 37.492821 -109.604731 218 30371ft 235kts
02-Dec-19 20:32 37.432231 -109.635396 218 30371ft 235kts
02-Dec-19 20:33 37.371935 -109.665851 218 30391ft 237kts
02-Dec-19 20:34 37.310281 -109.696952 217 30395ft 241kts
02-Dec-19 20:35 37.247657 -109.728460 217 30386ft 243kts
02-Dec-19 20:36 37.185107 -109.759892 217 30386ft 243kts
02-Dec-19 20:37 37.122337 -109.791384 218 30400ft 242kts
02-Dec-19 20:38 37.060003 -109.822588 217 30395ft 241kts
02-Dec-19 20:39 36.997349 -109.853902 218 30404ft 241kts
02-Dec-19 20:40 36.935072 -109.884953 218 30387ft 241kts
02-Dec-19 20:41 36.874000 -109.915382 218 30374ft 240kts
02-Dec-19 20:42 36.811816 -109.946303 218 30385ft 240kts
02-Dec-19 20:43 36.749785 -109.977074 218 30385ft 240kts
02-Dec-19 20:44 36.687903 -110.007761 218 30372ft 239kts
02-Dec-19 20:45 36.626404 -110.038153 218 30377ft 237kts
02-Dec-19 20:46 36.565058 -110.068447 218 30384ft 237kts
02-Dec-19 20:47 36.503903 -110.098594 218 30367ft 237kts
02-Dec-19 20:48 36.442897 -110.128605 218 30374ft 236kts
02-Dec-19 20:49 36.381672 -110.158696 218 30352ft 237kts
02-Dec-19 20:50 36.320136 -110.188849 218 30337ft 238kts
02-Dec-19 20:50 36.269026 -110.213866 218 30321ft 237kts
02-Dec-19 20:52 36.197709 -110.248745 218 30325ft 235kts
02-Dec-19 20:52 36.146907 -110.273531 218 30323ft 235kts
02-Dec-19 20:53 36.085984 -110.303197 218 30326ft 234kts
02-Dec-19 20:55 36.015287 -110.337578 218 30328ft 235kts
02-Dec-19 20:55 35.964532 -110.362252 218 30334ft 235kts
02-Dec-19 20:56 35.903699 -110.391733 218 30320ft 235kts
02-Dec-19 20:57 35.843040 -110.421089 218 30324ft 234kts
02-Dec-19 20:58 35.782292 -110.450449 217 30337ft 235kts
02-Dec-19 20:59 35.721112 -110.479944 218 30328ft 237kts
02-Dec-19 21:00 35.659793 -110.509480 217 30313ft 236kts
02-Dec-19 21:01 35.598709 -110.538861 217 30324ft 236kts
02-Dec-19 21:02 35.537775 -110.568086 217 30321ft 235kts
02-Dec-19 21:03 35.476825 -110.597306 217 30316ft 236kts
02-Dec-19 21:04 35.415497 -110.626634 217 30319ft 237kts
02-Dec-19 21:05 35.354819 -110.655616 216 30352ft 236kts
02-Dec-19 21:06 35.293079 -110.685095 216 30357ft 239kts
02-Dec-19 21:07 35.230655 -110.714796 216 30346ft 241kts
02-Dec-19 21:08 35.167996 -110.744581 215 30339ft 243kts
02-Dec-19 21:09 35.104987 -110.774850 220 30334ft 237kts
02-Dec-19 21:10 35.082723 -110.837149 277 30333ft 219kts
02-Dec-19 21:11 35.064373 -110.901169 224 30030ft 236kts
02-Dec-19 21:12 34.989010 -110.901623 177 28931ft 317kts
02-Dec-19 21:13 34.907945 -110.896378 203 27714ft 282kts
02-Dec-19 21:14 34.831851 -110.914811 202 26552ft 283kts
02-Dec-19 21:15 34.754701 -110.933443 201 25361ft 283kts
02-Dec-19 21:16 34.678049 -110.951912 201 24552ft 276kts
02-Dec-19 21:17 34.601857 -110.970304 200 23413ft 285kts
02-Dec-19 21:18 34.523193 -110.989178 199 22115ft 290kts
02-Dec-19 21:19 34.443694 -111.008250 198 20831ft 292kts
02-Dec-19 21:20 34.363947 -111.027337 198 19538ft 293kts
02-Dec-19 21:21 34.283964 -111.046457 197 18243ft 293kts
02-Dec-19 21:22 34.203673 -111.065594 196 16947ft 295kts
02-Dec-19 21:23 34.126681 -111.090375 226 16058ft 269kts
02-Dec-19 21:24 34.073071 -111.158136 229 14129ft 276kts
02-Dec-19 21:25 34.023447 -111.221742 230 14129ft 253kts
02-Dec-19 21:26 33.975469 -111.283185 230 14134ft 249kts
02-Dec-19 21:27 33.927888 -111.343999 230 14135ft 249kts
02-Dec-19 21:28 33.881762 -111.402823 230 14097ft 250kts
02-Dec-19 21:29 33.832205 -111.467009 237 12592ft 268kts
02-Dec-19 21:30 33.789867 -111.539610 237 12027ft 256kts
02-Dec-19 21:31 33.749734 -111.608523 238 12004ft 248kts
02-Dec-19 21:32 33.710800 -111.675407 237 12015ft 246kts
02-Dec-19 21:33 33.671033 -111.743823 237 11584ft 260kts
02-Dec-19 21:34 33.628108 -111.817909 235 9893ft 273kts
02-Dec-19 21:35 33.581681 -111.891688 229 8177ft 271kts
02-Dec-19 21:36 33.545422 -111.968046 260 6386ft 267kts
02-Dec-19 21:37 33.532820 -112.055555 260 5003ft 249kts
02-Dec-19 21:38 33.520989 -112.136574 260 4832ft 248kts
02-Dec-19 21:39 33.475063 -112.190132 210 3817ft 236kts
02-Dec-19 21:40 33.424597 -112.175170 110 3022ft 218kts
02-Dec-19 21:41 33.427752 -112.110319 78 2561ft 164kts
02-Dec-19 21:42 33.428494 -112.065203 90 1753ft 113kts
02-Dec-19 21:43 33.428819 -112.033605 89 1246ft 96kts
02-Dec-19 21:44 33.427919 -112.016688 223 1114ft 3kts
02-Dec-19 21:45 33.427771 -112.021060 266 1112ft 21kts
02-Dec-19 21:46 33.426553 -112.023475 138 1112ft 8kts
02-Dec-19 21:47 33.426361 -112.022733 97 1112ft 0kts
02-Dec-19 21:48 33.426361 -112.022733 97 1112ft 0kts
02-Dec-19 21:49 33.426361 -112.022733 97 1112ft 0kts
02-Dec-19 21:50 33.426361 -112.022733 97 1112ft 0kts
02-Dec-19 21:51 33.426361 -112.022733 97 1112ft 0kts
02-Dec-19 21:52 33.426361 -112.022733 97 1112ft 0kts
02-Dec-19 21:53 33.426361 -112.022733 97 1112ft 0kts
02-Dec-19 21:54 33.426361 -112.022733 97 1112ft 0kts
02-Dec-19 21:55 33.426361 -112.022733 97 1112ft 0kts
02-Dec-19 21:56 33.426361 -112.022733 97 1112ft 0kts
02-Dec-19 21:57 33.426361 -112.022733 97 1112ft 0kts
02-Dec-19 21:58 33.426361 -112.022733 97 1112ft 0kts
02-Dec-19 21:59 33.426361 -112.022733 97 1112ft 0kts

Navigation Log

Ident Type
Flight plan parsing failed, navigation log unavailable